KAWO2: Kaw Lake

Data processed at Fri May 26 2017 23:02


All information presented herein is the property of the government of the United States of America and may be revised or deleted at any time without prior notice.
Dissemination of this information without the expressed written consent of the Public Affairs Office, Tulsa District U.S. Army Corps of Engineers is strictly prohibited.
These data are gathered electronically and, as presented, have not undergone any form of quality control. These data are not guaranteed to be valid or correct.
Go to home page.
Go to station list.
Go to home page.

Upstream stations:

Downstream station:
Previous Day
Next Day
Current Day
    
SHEF ID:       KAWO2     Kaw Lake
STATION TYPE:  RESERVOIR
Normal Pool:  Bottom =   978.00, Top =  1010.00

               PRECIP  RIV-FLOW ELEVATION   STORAGE   TW-ELEV    INFLOW   RELEASE  AIR-TEMP  WIND-DIRWIND-SPEED REL-HUMID SOLAR-RAD   VOLTAGE  BAT-LOAD
                   in       cfs        ft     ac-ft        ft       cfs       cfs         F       deg       mph         %      W/m2      volt      volt
              Ccp-Rev   Ccp-Rev   Ccp-Rev   Ccp-Rev   Ccp-Rev  Regi-Rev  Regi-Rev   Ccp-Rev   Ccp-Rev   Ccp-Rev   Ccp-Rev   Ccp-Rev   Ccp-Rev   Ccp-Rev
(US/Central)
05/26 00:00      0.00     14969   1035.79    956082      7.89        43     14969     72.73    166.50     11.70     68.30      0.00     12.67     12.49
05/26 01:00      0.00     14969   1035.76    955153      7.89      -901      -901     71.98    173.90     13.40     71.15      0.00     12.65     12.49
05/26 02:00      0.00     14913   1035.75    954844      7.88      -901      -901     72.07    179.10     12.20     71.10      0.00     12.62     12.49
05/26 03:00      0.00     14969   1035.82    957010      7.89      -901      -901     72.61      5.90     13.80     70.14      0.00     12.60     12.41
05/26 04:00      0.00     14913   1035.76    955153      7.88      -901      -901     71.15     87.80      6.90     74.48      0.00     12.58     12.41
05/26 05:00      0.00     15025   1035.71    953606      7.90      -901      -901     69.28    117.70      8.70     78.61      0.00     12.56     12.41
05/26 06:00      0.00     15025   1035.72    953916      7.90      -901      -901     69.04     92.30      8.60     79.20      0.00     12.54     12.41
05/26 07:00      0.00     14913   1035.69    952987      7.88      -901      -901     67.87     32.30      8.40     85.35     16.10     12.51     12.41
05/26 08:00      0.00     14969   1035.65    951749      7.89      -901      -901     67.44     39.20      7.20     85.16    138.40     12.54     12.41
05/26 09:00      0.00     14856   1035.61    950511      7.87      -901      -901     69.13     13.90      5.60     84.71    378.80     12.67     12.41
05/26 10:00      0.00     14913   1035.61    950511      7.88      -901      -901     70.14      4.70      7.50     83.85    589.50     13.19     12.49
05/26 11:00      0.00     14913   1035.61    950511      7.88      -901      -901     73.90     29.50      6.40     74.19    760.30     13.59     13.05
05/26 12:00      0.00     15081   1035.59    949892      7.91      -901      -901     76.44     12.40     10.60     69.25    892.20     13.74     13.29
05/26 13:00      0.00     20200   1035.54    948345      8.82      -901      -901     77.31     10.80      9.40     67.26    965.90     13.85     14.16
05/26 14:00      0.00     20482   1035.51    947416      8.87      -901      -901     78.75     20.90      8.60     64.64    977.60     13.59     13.21
05/26 15:00      0.00     22619   1035.46    945869      9.25      -901      -901     80.46     52.80     10.50     59.18    685.00     13.75     13.44
05/26 16:00      0.00     24997   1035.42    944631      9.71      -901      -901     81.55     51.00     11.90     55.66    619.70     13.95     13.37
05/26 17:00      0.00     25506   1035.36    942774      9.81      -901      -901     82.29     52.20      9.20     54.99    700.50     13.77     13.68
05/26 18:00      0.00     25506   1035.31    941227      9.81      -901      -901     82.20     50.80      8.10     56.40    492.60     13.12     12.89
05/26 19:00      0.00     25608   1035.26    939679      9.83      -901      -901     81.18     38.20      8.60     59.41    252.20     14.12     12.81
05/26 20:00      0.00     25557   1035.21    938132      9.82      -901      -901     82.08     62.10      7.20     58.29    122.00     12.89     12.89
05/26 21:00      0.00     25557   1035.16    936585      9.82      -901      -901     79.83     62.80      5.80     64.58      1.90     12.77     12.65
05/26 22:00      0.00     25506   1035.12    935347      9.81      ----      ----     75.97     43.50      5.00     77.75      0.00     12.73     12.57
05/26 23:00      ----      ----      ----      ----      ----      ----      ----      ----      ----      ----      ----      ----      ----      ----